Time;durP1;ratioP1;P1;durP2;ratioP2;P2;SDS_P1;SDS_P2;PMS_P1;PMS_P2;Temp;Humidity;BMP_temperature;BMP_pressure;BME280_temperature;BME280_humidity;BME280_pressure;Samples;Min_cycle;Max_cycle;Signal;HPM_P1;HPM_P2
2022/10/21 00:00:51;;;;;;;31.20;12.07;;;11.50;99.90;;;;;;5038049;28;20131;-82
2022/10/21 00:03:18;;;;;;;28.83;11.70;;;11.50;99.90;;;;;;5037334;28;20107;-82
2022/10/21 00:05:43;;;;;;;30.88;13.25;;;11.50;99.90;;;;;;5033205;28;20036;-81
2022/10/21 00:08:09;;;;;;;26.90;11.32;;;11.40;99.90;;;;;;5028698;28;20076;-82
2022/10/21 00:10:35;;;;;;;37.47;13.40;;;11.50;99.90;;;;;;5044406;28;20046;-82
2022/10/21 00:13:00;;;;;;;35.47;12.77;;;11.40;99.90;;;;;;5033421;28;20065;-81
2022/10/21 00:15:26;;;;;;;27.27;12.10;;;11.40;99.90;;;;;;5041530;28;20052;-82
2022/10/21 00:17:52;;;;;;;30.08;12.18;;;11.40;99.90;;;;;;5048742;28;20104;-82
2022/10/21 00:20:18;;;;;;;35.05;13.10;;;11.40;99.90;;;;;;5042044;28;20431;-81
2022/10/21 00:22:44;;;;;;;33.38;13.30;;;11.40;99.90;;;;;;5024855;28;20052;-82
2022/10/21 00:25:10;;;;;;;29.98;12.00;;;11.40;99.90;;;;;;5048811;28;20050;-82
2022/10/21 00:27:35;;;;;;;27.42;12.63;;;11.40;99.90;;;;;;5028159;28;20427;-82
2022/10/21 00:30:03;;;;;;;23.67;11.70;;;11.40;99.90;;;;;;5044282;28;20072;-81
2022/10/21 00:32:29;;;;;;;31.13;13.25;;;11.40;99.90;;;;;;5040739;28;20042;-82
2022/10/21 00:34:55;;;;;;;31.88;13.05;;;11.40;99.90;;;;;;5033412;28;20037;-81
2022/10/21 00:37:20;;;;;;;36.53;12.55;;;11.40;99.90;;;;;;5038237;28;20045;-82
2022/10/21 00:39:46;;;;;;;33.35;13.25;;;11.40;99.90;;;;;;5037734;28;20057;-81
2022/10/21 00:42:16;;;;;;;31.00;11.80;;;11.50;99.90;;;;;;5034984;28;20048;-82
2022/10/21 00:44:42;;;;;;;29.67;11.70;;;11.40;99.90;;;;;;5047359;28;20077;-81
2022/10/21 00:47:15;;;;;;;27.13;11.88;;;11.50;99.90;;;;;;5040589;28;20033;-81
2022/10/21 00:49:53;;;;;;;29.13;12.60;;;11.50;99.90;;;;;;5044016;28;20168;-81
2022/10/21 00:52:21;;;;;;;26.00;11.60;;;11.50;99.90;;;;;;5041457;28;20046;-81
2022/10/21 00:54:51;;;;;;;31.73;13.52;;;11.50;99.90;;;;;;5048883;28;20095;-82
2022/10/21 00:57:19;;;;;;;23.15;10.18;;;11.50;99.90;;;;;;5047383;28;20053;-82
2022/10/21 00:59:52;;;;;;;31.65;12.23;;;11.50;99.90;;;;;;5038869;28;20038;-82
2022/10/21 01:02:18;;;;;;;26.95;12.50;;;11.50;99.90;;;;;;5047092;28;20045;-82
2022/10/21 01:04:45;;;;;;;30.67;12.68;;;11.50;99.90;;;;;;5040718;28;20044;-82
2022/10/21 01:07:11;;;;;;;28.83;12.57;;;11.50;99.90;;;;;;5037561;28;20041;-83
2022/10/21 01:09:37;;;;;;;24.42;10.80;;;11.50;99.90;;;;;;5040294;28;20041;-82
2022/10/21 01:12:05;;;;;;;25.98;11.52;;;11.50;99.90;;;;;;5031189;28;20033;-83
2022/10/21 01:14:53;;;;;;;32.15;12.68;;;11.50;99.90;;;;;;5044649;28;20042;-83
2022/10/21 01:17:29;;;;;;;23.15;11.27;;;11.40;99.90;;;;;;5044492;28;20077;-83
2022/10/21 01:20:16;;;;;;;27.17;11.20;;;11.40;99.90;;;;;;5043852;28;20084;-83
2022/10/21 01:22:56;;;;;;;24.20;12.15;;;11.40;99.90;;;;;;5042394;28;20101;-82
2022/10/21 01:25:43;;;;;;;29.13;11.18;;;11.40;99.90;;;;;;5041057;28;20049;-83
2022/10/21 01:28:40;;;;;;;34.70;11.27;;;11.40;99.90;;;;;;5045012;28;20521;-82
2022/10/21 01:31:16;;;;;;;31.58;12.30;;;11.40;99.90;;;;;;5050726;28;20072;-82
2022/10/21 01:33:46;;;;;;;26.52;11.82;;;11.50;99.90;;;;;;5044301;28;20045;-81
2022/10/21 01:36:55;;;;;;;27.90;11.93;;;11.50;99.90;;;;;;5042656;28;20076;-82
2022/10/21 01:39:41;;;;;;;32.88;12.00;;;11.50;99.90;;;;;;5038237;28;20041;-82
2022/10/21 01:42:30;;;;;;;33.85;12.70;;;11.50;99.90;;;;;;5049323;28;20045;-82
2022/10/21 01:45:12;;;;;;;36.97;11.70;;;11.60;99.90;;;;;;5042051;28;20518;-81
2022/10/21 01:47:46;;;;;;;27.70;11.82;;;11.60;99.90;;;;;;5044385;28;20159;-82
2022/10/21 01:50:21;;;;;;;27.70;12.50;;;11.60;99.90;;;;;;5035828;28;20056;-81
2022/10/21 01:52:51;;;;;;;25.67;11.20;;;11.70;99.90;;;;;;5026767;28;20081;-81
2022/10/21 01:55:23;;;;;;;30.58;11.63;;;11.80;99.90;;;;;;5037833;28;20061;-81
2022/10/21 01:58:03;;;;;;;23.63;11.70;;;11.80;99.90;;;;;;5042011;28;20128;-82
2022/10/21 02:00:32;;;;;;;25.35;11.50;;;11.90;99.90;;;;;;5040211;28;20102;-81
2022/10/21 02:03:03;;;;;;;24.45;10.93;;;11.90;99.90;;;;;;5042490;28;20059;-82
2022/10/21 02:05:32;;;;;;;27.50;11.13;;;11.90;99.90;;;;;;5066688;28;20040;-81
2022/10/21 02:07:57;;;;;;;26.27;11.10;;;12.00;99.90;;;;;;5042287;28;20132;-82
2022/10/21 02:10:27;;;;;;;23.77;11.00;;;12.10;99.90;;;;;;5047705;28;20497;-82
2022/10/21 02:12:57;;;;;;;24.33;11.38;;;12.10;99.90;;;;;;5038638;28;20048;-80
2022/10/21 02:15:25;;;;;;;22.73;11.88;;;12.10;99.90;;;;;;5044971;28;20049;-81
2022/10/21 02:17:56;;;;;;;24.88;10.73;;;12.10;99.90;;;;;;5032945;28;20096;-81
2022/10/21 02:20:25;;;;;;;26.55;11.73;;;12.10;99.90;;;;;;5043720;28;20045;-81
2022/10/21 02:22:50;;;;;;;25.17;10.23;;;12.10;99.90;;;;;;5051492;28;20059;-82
2022/10/21 02:25:22;;;;;;;23.40;10.82;;;12.10;99.90;;;;;;5046427;28;20079;-81
2022/10/21 02:27:48;;;;;;;26.05;11.32;;;12.20;99.90;;;;;;5062142;28;20041;-81
2022/10/21 02:30:14;;;;;;;23.88;11.27;;;12.20;99.90;;;;;;5045027;28;20075;-81
2022/10/21 02:33:12;;;;;;;25.75;11.70;;;12.20;99.90;;;;;;5038616;28;20037;-82
2022/10/21 02:35:56;;;;;;;25.92;11.00;;;12.20;99.90;;;;;;5038847;28;20526;-82
2022/10/21 02:38:41;;;;;;;26.50;10.65;;;12.20;99.90;;;;;;5033255;28;20045;-82
2022/10/21 02:41:10;;;;;;;51.55;14.05;;;12.30;99.90;;;;;;5041611;28;20100;-82
2022/10/21 02:43:41;;;;;;;27.55;11.00;;;12.30;99.90;;;;;;5043502;28;20079;-82
2022/10/21 02:46:09;;;;;;;33.90;13.77;;;12.30;99.90;;;;;;5045644;28;20061;-82
2022/10/21 02:48:37;;;;;;;28.63;11.55;;;12.30;99.90;;;;;;5068235;28;20436;-81
2022/10/21 02:51:05;;;;;;;67.32;14.13;;;12.30;99.90;;;;;;5048457;28;20041;-81
2022/10/21 02:53:32;;;;;;;35.83;11.32;;;12.30;99.90;;;;;;5058491;28;20045;-82
2022/10/21 02:55:57;;;;;;;68.80;15.13;;;12.30;99.90;;;;;;5040225;28;20072;-82
2022/10/21 02:58:23;;;;;;;25.60;12.10;;;12.40;99.90;;;;;;5057009;28;20163;-82
2022/10/21 03:00:49;;;;;;;36.40;11.70;;;12.40;99.90;;;;;;5039860;28;20560;-82
2022/10/21 03:03:15;;;;;;;41.60;12.13;;;12.40;99.90;;;;;;5046932;28;20049;-82
2022/10/21 03:05:40;;;;;;;38.70;12.38;;;12.40;99.90;;;;;;5052721;28;20152;-82
2022/10/21 03:08:06;;;;;;;29.52;11.60;;;12.30;99.90;;;;;;5039606;28;20053;-82
2022/10/21 03:10:32;;;;;;;39.25;12.38;;;12.30;99.90;;;;;;5049735;28;20049;-82
2022/10/21 03:12:57;;;;;;;48.17;11.35;;;12.20;99.90;;;;;;5044448;28;20040;-82
2022/10/21 03:15:23;;;;;;;56.28;12.40;;;12.10;99.90;;;;;;5038696;28;20064;-82
2022/10/21 03:17:49;;;;;;;34.70;12.00;;;12.10;99.90;;;;;;5036834;28;20053;-82
2022/10/21 03:20:15;;;;;;;32.63;11.73;;;12.10;99.90;;;;;;5022932;28;20060;-82
2022/10/21 03:22:41;;;;;;;222.60;28.70;;;12.00;99.90;;;;;;5048973;28;20041;-82
2022/10/21 03:25:07;;;;;;;172.10;18.73;;;12.00;99.90;;;;;;5053150;28;20103;-81
2022/10/21 03:27:32;;;;;;;301.58;33.53;;;12.00;99.90;;;;;;5024637;28;20042;-82
2022/10/21 03:29:58;;;;;;;281.10;30.27;;;11.90;99.90;;;;;;5028611;28;20093;-82
2022/10/21 03:32:24;;;;;;;252.77;31.30;;;11.90;99.90;;;;;;5039591;28;20052;-82
2022/10/21 03:34:50;;;;;;;279.73;32.92;;;11.80;99.90;;;;;;5041529;28;20051;-82
2022/10/21 03:37:16;;;;;;;232.55;24.77;;;11.80;99.90;;;;;;5033241;28;20037;-83
2022/10/21 03:39:42;;;;;;;46.53;11.70;;;11.90;99.90;;;;;;5042552;28;20052;-82
2022/10/21 03:42:07;;;;;;;46.00;11.98;;;11.90;99.90;;;;;;5041889;28;20120;-82
2022/10/21 03:44:33;;;;;;;55.58;14.68;;;11.90;99.90;;;;;;5048189;28;20104;-82
2022/10/21 03:46:59;;;;;;;74.30;16.33;;;12.00;99.90;;;;;;5038596;28;20048;-82
2022/10/21 03:49:24;;;;;;;39.47;11.68;;;12.00;99.90;;;;;;5034826;28;20127;-81
2022/10/21 03:51:50;;;;;;;158.77;20.83;;;12.00;99.90;;;;;;5038558;28;20050;-82
2022/10/21 03:54:16;;;;;;;63.25;14.38;;;12.10;99.90;;;;;;5028414;28;20045;-82
2022/10/21 03:56:42;;;;;;;30.58;11.63;;;12.10;99.90;;;;;;5048996;28;20041;-82
2022/10/21 03:59:08;;;;;;;54.70;13.57;;;12.20;99.90;;;;;;5042662;28;20076;-82
2022/10/21 04:01:34;;;;;;;41.15;11.52;;;12.20;99.90;;;;;;5044831;28;20059;-82
2022/10/21 04:04:00;;;;;;;33.65;13.18;;;12.20;99.90;;;;;;5040527;28;20076;-83
2022/10/21 04:06:25;;;;;;;51.28;12.52;;;12.20;99.90;;;;;;5038060;28;20078;-83
2022/10/21 04:08:51;;;;;;;86.80;16.75;;;12.20;99.90;;;;;;5041083;28;20140;-82
2022/10/21 04:11:17;;;;;;;44.63;12.80;;;12.30;99.90;;;;;;5035970;28;20073;-83
2022/10/21 04:13:43;;;;;;;32.15;11.52;;;12.30;99.90;;;;;;5047075;28;20137;-83
2022/10/21 04:16:16;;;;;;;26.02;10.88;;;12.30;99.90;;;;;;5034799;28;20115;-83
2022/10/21 04:18:41;;;;;;;38.88;10.68;;;12.40;99.90;;;;;;5048738;28;20107;-82
2022/10/21 04:21:07;;;;;;;53.50;14.38;;;12.30;99.90;;;;;;5041961;28;20054;-83
2022/10/21 04:23:33;;;;;;;166.90;21.52;;;12.30;99.90;;;;;;5048219;28;20037;-83
2022/10/21 04:25:59;;;;;;;156.18;21.85;;;12.30;99.90;;;;;;5046781;28;20098;-82
2022/10/21 04:28:25;;;;;;;173.43;24.45;;;12.30;99.90;;;;;;5028858;28;20041;-83
2022/10/21 04:30:51;;;;;;;126.20;19.00;;;12.20;99.90;;;;;;5040534;28;20045;-82
2022/10/21 04:33:17;;;;;;;150.95;24.40;;;12.20;99.90;;;;;;5041253;28;20049;-83
2022/10/21 04:35:43;;;;;;;202.23;28.15;;;12.10;99.90;;;;;;5033676;28;20492;-82
2022/10/21 04:38:08;;;;;;;70.18;15.00;;;12.10;99.90;;;;;;5037666;28;20049;-82
2022/10/21 04:40:34;;;;;;;65.63;15.85;;;12.10;99.90;;;;;;5038324;28;20037;-82
2022/10/21 04:43:00;;;;;;;108.00;18.65;;;12.10;99.90;;;;;;5038611;28;20050;-83
2022/10/21 04:45:25;;;;;;;108.63;21.60;;;12.10;99.90;;;;;;5044110;28;20083;-83
2022/10/21 04:47:51;;;;;;;126.18;21.65;;;12.10;99.90;;;;;;5037436;28;20127;-83
2022/10/21 04:50:17;;;;;;;77.75;16.98;;;12.10;99.90;;;;;;5040870;28;20121;-82
2022/10/21 04:52:43;;;;;;;106.00;18.83;;;12.20;99.90;;;;;;5043669;28;20917;-83
2022/10/21 04:55:08;;;;;;;119.38;20.67;;;12.20;99.90;;;;;;5042245;28;20131;-83
2022/10/21 04:57:34;;;;;;;74.75;17.42;;;12.20;99.90;;;;;;5046069;28;20041;-83
2022/10/21 05:00:00;;;;;;;91.70;20.52;;;12.30;99.90;;;;;;5033256;28;20033;-83
2022/10/21 05:02:25;;;;;;;146.77;22.23;;;12.30;99.90;;;;;;5044135;28;20041;-83
2022/10/21 05:04:51;;;;;;;125.60;23.52;;;12.40;99.90;;;;;;5043358;28;20057;-82
2022/10/21 05:07:17;;;;;;;86.78;16.85;;;12.40;99.90;;;;;;5041333;28;22359;-82
2022/10/21 05:09:42;;;;;;;74.70;16.55;;;12.40;99.90;;;;;;5010287;28;20529;-82
2022/10/21 05:12:08;;;;;;;52.40;15.70;;;12.50;99.90;;;;;;5027417;28;20103;-82
2022/10/21 05:14:34;;;;;;;138.57;24.60;;;12.40;99.90;;;;;;5047186;28;20052;-82
2022/10/21 05:17:00;;;;;;;65.68;16.10;;;12.40;99.90;;;;;;5040247;28;20075;-82
2022/10/21 05:19:25;;;;;;;78.35;17.23;;;12.40;99.90;;;;;;5030956;28;20048;-82
2022/10/21 05:21:51;;;;;;;282.40;33.30;;;12.40;99.90;;;;;;5024372;28;20763;-83
2022/10/21 05:24:17;;;;;;;157.77;23.98;;;12.30;99.90;;;;;;5056459;28;20060;-84
2022/10/21 05:26:42;;;;;;;225.60;28.17;;;12.30;99.90;;;;;;5042924;28;20041;-84
2022/10/21 05:29:08;;;;;;;93.60;18.17;;;12.30;99.90;;;;;;5039609;28;20736;-83
2022/10/21 05:31:34;;;;;;;134.88;21.42;;;12.30;99.90;;;;;;5025695;28;20083;-83
2022/10/21 05:34:00;;;;;;;141.25;22.77;;;12.20;99.90;;;;;;5025818;28;20058;-82
2022/10/21 05:36:26;;;;;;;120.30;18.00;;;12.20;99.90;;;;;;5064586;28;20076;-82
2022/10/21 05:38:52;;;;;;;89.78;16.88;;;12.10;99.90;;;;;;5026636;28;20049;-82
2022/10/21 05:41:18;;;;;;;68.35;14.85;;;12.10;99.90;;;;;;5042779;28;20053;-82
2022/10/21 05:43:44;;;;;;;102.70;18.00;;;12.00;99.90;;;;;;5030299;28;20053;-82
2022/10/21 05:46:10;;;;;;;65.40;15.82;;;12.00;99.90;;;;;;5049114;28;20052;-82
2022/10/21 05:48:36;;;;;;;109.18;21.70;;;12.00;99.90;;;;;;5053653;28;20065;-82
2022/10/21 05:51:02;;;;;;;89.88;18.25;;;12.00;99.90;;;;;;5040947;28;20143;-82
2022/10/21 05:53:28;;;;;;;72.15;17.52;;;12.00;99.90;;;;;;5047160;28;20044;-82
2022/10/21 05:56:00;;;;;;;69.97;16.63;;;12.00;99.90;;;;;;5039679;28;20057;-82
2022/10/21 05:58:27;;;;;;;99.13;17.52;;;11.90;99.90;;;;;;5040333;28;20052;-82
2022/10/21 06:00:53;;;;;;;46.50;12.13;;;11.90;99.90;;;;;;5045622;28;20069;-82
2022/10/21 06:03:24;;;;;;;111.22;19.73;;;11.90;99.90;;;;;;5029402;28;20072;-82
2022/10/21 06:05:50;;;;;;;156.98;24.35;;;11.80;99.90;;;;;;5035138;28;20109;-82
2022/10/21 06:08:16;;;;;;;98.03;21.40;;;11.80;99.90;;;;;;5042851;28;20152;-82
2022/10/21 06:10:42;;;;;;;59.83;14.52;;;11.80;99.90;;;;;;5045432;28;20071;-84
2022/10/21 06:13:08;;;;;;;42.22;13.23;;;11.80;99.90;;;;;;5045455;28;20518;-83
2022/10/21 06:15:35;;;;;;;40.58;13.20;;;11.80;99.90;;;;;;5025588;28;20069;-84
2022/10/21 06:18:01;;;;;;;52.35;14.82;;;11.70;99.90;;;;;;5017397;28;20046;-83
2022/10/21 06:20:26;;;;;;;55.65;14.77;;;11.70;99.90;;;;;;5031902;28;20107;-84
2022/10/21 06:22:52;;;;;;;71.93;15.57;;;11.70;99.90;;;;;;5044571;28;20037;-82
2022/10/21 06:25:18;;;;;;;54.53;14.45;;;11.80;99.90;;;;;;5030028;28;20073;-82
2022/10/21 06:27:43;;;;;;;65.18;16.52;;;11.80;99.90;;;;;;5029715;28;20079;-82
2022/10/21 06:30:09;;;;;;;45.42;15.30;;;11.80;99.90;;;;;;5033598;28;20045;-82
2022/10/21 06:32:35;;;;;;;31.10;12.30;;;11.80;99.90;;;;;;5041685;28;20088;-83
2022/10/21 06:35:01;;;;;;;25.42;11.52;;;11.80;99.90;;;;;;5025542;28;20045;-83
2022/10/21 06:37:26;;;;;;;40.20;13.15;;;11.80;99.90;;;;;;5041257;28;20040;-81
2022/10/21 06:39:52;;;;;;;33.28;12.40;;;11.90;99.90;;;;;;5043627;28;20107;-82
2022/10/21 06:42:18;;;;;;;35.90;12.00;;;11.90;99.90;;;;;;5037461;28;20053;-82
2022/10/21 06:44:43;;;;;;;31.95;11.35;;;11.90;99.90;;;;;;5016761;28;20056;-84
2022/10/21 06:47:09;;;;;;;26.92;10.95;;;12.00;99.90;;;;;;5021989;28;20445;-83
2022/10/21 06:49:35;;;;;;;42.13;11.90;;;12.00;99.90;;;;;;5028017;28;20037;-83
2022/10/21 06:52:00;;;;;;;76.43;14.35;;;12.00;99.90;;;;;;5040852;28;20045;-83
2022/10/21 06:54:26;;;;;;;55.03;12.65;;;12.00;99.90;;;;;;5037588;28;20209;-82
2022/10/21 06:56:52;;;;;;;30.95;11.10;;;12.00;99.90;;;;;;5033082;28;20124;-82
2022/10/21 06:59:17;;;;;;;23.35;10.75;;;12.00;99.90;;;;;;5036617;28;20570;-83
2022/10/21 07:01:43;;;;;;;29.48;11.18;;;12.00;99.90;;;;;;5031091;28;20541;-83
2022/10/21 07:04:09;;;;;;;25.13;10.05;;;12.00;99.90;;;;;;5014898;28;20135;-82
2022/10/21 07:06:36;;;;;;;23.17;9.77;;;12.00;99.90;;;;;;5047225;28;20052;-83
2022/10/21 07:09:03;;;;;;;26.08;10.85;;;12.10;99.90;;;;;;5042730;28;20087;-82
2022/10/21 07:11:29;;;;;;;17.48;9.38;;;12.00;99.90;;;;;;5039054;28;20041;-82
2022/10/21 07:13:55;;;;;;;22.63;9.80;;;12.10;99.90;;;;;;5040166;28;20049;-82
2022/10/21 07:16:25;;;;;;;35.75;10.57;;;12.10;99.90;;;;;;5044637;28;20412;-80
2022/10/21 07:18:50;;;;;;;87.70;13.15;;;12.10;99.90;;;;;;5023857;28;20050;-81
2022/10/21 07:21:18;;;;;;;21.67;9.63;;;12.20;99.90;;;;;;5042321;28;20081;-81
2022/10/21 07:23:46;;;;;;;40.13;11.48;;;12.20;99.90;;;;;;5046177;28;20049;-81
2022/10/21 07:26:12;;;;;;;56.22;11.25;;;12.20;99.90;;;;;;5039533;28;20068;-81
2022/10/21 07:28:38;;;;;;;239.88;22.40;;;12.30;99.90;;;;;;5053087;28;20037;-81
2022/10/21 07:31:05;;;;;;;26.48;8.63;;;12.30;99.90;;;;;;5044681;28;20050;-81
2022/10/21 07:33:33;;;;;;;26.65;11.15;;;12.30;99.90;;;;;;5022618;28;20049;-81
2022/10/21 07:36:21;;;;;;;24.63;10.57;;;12.40;99.90;;;;;;5031679;28;20041;-81
2022/10/21 07:38:48;;;;;;;25.58;9.88;;;12.40;99.90;;;;;;5044797;28;20041;-82
2022/10/21 07:41:17;;;;;;;19.67;9.57;;;12.50;99.90;;;;;;5051901;28;20080;-82
2022/10/21 07:43:43;;;;;;;23.73;10.05;;;12.50;99.90;;;;;;5041053;28;20112;-82
2022/10/21 07:46:09;;;;;;;26.92;10.00;;;12.60;99.90;;;;;;5041516;28;20040;-81
2022/10/21 07:48:35;;;;;;;21.20;10.52;;;12.70;99.90;;;;;;5048549;28;20489;-82
2022/10/21 07:51:06;;;;;;;26.40;11.02;;;12.80;99.90;;;;;;5026182;28;20060;-82
2022/10/21 07:53:32;;;;;;;27.67;11.48;;;12.90;99.90;;;;;;5026487;28;20055;-82
2022/10/21 07:56:10;;;;;;;33.50;10.50;;;13.00;99.90;;;;;;5043421;28;20048;-81
2022/10/21 07:58:36;;;;;;;28.33;10.15;;;13.10;99.90;;;;;;5035799;28;20045;-82
2022/10/21 08:01:04;;;;;;;28.15;9.73;;;13.20;99.90;;;;;;5015851;28;20049;-81
2022/10/21 08:03:30;;;;;;;21.17;10.15;;;13.30;99.90;;;;;;5039710;28;20044;-80
2022/10/21 08:05:56;;;;;;;30.60;11.00;;;13.40;99.90;;;;;;5045034;28;20041;-81
2022/10/21 08:08:22;;;;;;;22.77;9.50;;;13.50;99.90;;;;;;5037551;28;20046;-82
2022/10/21 08:10:49;;;;;;;20.30;9.88;;;13.60;99.90;;;;;;5037283;28;20041;-84
2022/10/21 08:13:15;;;;;;;25.83;9.48;;;13.70;99.90;;;;;;5022233;28;20077;-83
2022/10/21 08:15:45;;;;;;;23.15;8.73;;;13.80;99.90;;;;;;5040304;28;20048;-83
2022/10/21 08:18:11;;;;;;;18.52;8.65;;;13.90;99.90;;;;;;5046358;28;20096;-83
2022/10/21 08:20:38;;;;;;;21.77;7.78;;;13.90;99.90;;;;;;5022483;28;20045;-83
2022/10/21 08:23:04;;;;;;;15.25;8.43;;;14.00;99.90;;;;;;5046412;28;20584;-82
2022/10/21 08:25:30;;;;;;;25.50;9.82;;;14.00;99.90;;;;;;5031645;28;20091;-83
2022/10/21 08:27:56;;;;;;;20.45;7.88;;;14.10;99.90;;;;;;5047117;28;20041;-83
2022/10/21 08:30:21;;;;;;;17.95;7.53;;;14.10;99.90;;;;;;5043938;28;20053;-83
2022/10/21 08:32:47;;;;;;;19.00;6.68;;;14.10;99.90;;;;;;5045368;28;20045;-83
2022/10/21 08:35:13;;;;;;;18.42;9.00;;;14.10;99.90;;;;;;5046657;28;20116;-82
2022/10/21 08:37:38;;;;;;;20.35;7.13;;;14.10;99.90;;;;;;5036437;28;20044;-82
2022/10/21 08:40:05;;;;;;;15.35;8.18;;;14.10;99.90;;;;;;5045779;28;20074;-82
2022/10/21 08:42:31;;;;;;;17.02;7.78;;;14.10;99.90;;;;;;5042171;28;20037;-82
2022/10/21 08:45:05;;;;;;;17.77;9.07;;;14.10;99.90;;;;;;5044007;28;20386;-83
2022/10/21 08:47:48;;;;;;;17.40;7.13;;;14.20;99.90;;;;;;5044441;28;20130;-83
2022/10/21 08:50:40;;;;;;;20.40;7.97;;;14.20;99.90;;;;;;5034623;28;20129;-83
2022/10/21 08:53:14;;;;;;;15.45;7.18;;;14.20;99.90;;;;;;5047624;28;20049;-83
2022/10/21 08:55:42;;;;;;;12.15;7.65;;;14.20;99.90;;;;;;5025439;28;20045;-83
2022/10/21 08:58:22;;;;;;;14.45;7.28;;;14.30;99.90;;;;;;5048505;28;20073;-84
2022/10/21 09:01:17;;;;;;;17.63;7.68;;;14.30;99.90;;;;;;5047173;28;20045;-84
2022/10/21 09:03:45;;;;;;;17.95;7.45;;;14.40;99.90;;;;;;5024922;28;20060;-83
2022/10/21 09:06:23;;;;;;;16.48;6.45;;;14.40;99.90;;;;;;5028890;28;20064;-84
2022/10/21 09:09:06;;;;;;;22.33;7.05;;;14.60;99.90;;;;;;5028509;28;20049;-83
2022/10/21 09:11:57;;;;;;;18.10;6.90;;;14.60;99.90;;;;;;5046575;28;20187;-82
2022/10/21 09:14:41;;;;;;;18.42;6.60;;;14.70;99.90;;;;;;5051693;28;20057;-82
2022/10/21 09:17:31;;;;;;;15.98;7.60;;;14.70;99.90;;;;;;5038709;28;20060;-82
2022/10/21 09:20:15;;;;;;;14.55;7.60;;;14.80;99.90;;;;;;5047626;28;20036;-82
2022/10/21 09:22:53;;;;;;;14.98;7.75;;;14.90;99.90;;;;;;5042143;28;20478;-82
2022/10/21 09:25:36;;;;;;;15.02;6.50;;;15.00;99.90;;;;;;5036023;28;20049;-82
2022/10/21 09:28:13;;;;;;;17.38;5.70;;;15.20;99.90;;;;;;5030359;28;20045;-82
2022/10/21 09:30:40;;;;;;;9.02;5.82;;;15.30;99.90;;;;;;5052188;28;20079;-82
2022/10/21 09:33:16;;;;;;;20.10;6.70;;;15.50;99.90;;;;;;5017634;28;20052;-84
2022/10/21 09:35:47;;;;;;;11.32;5.35;;;15.50;99.90;;;;;;5048127;28;20067;-82
2022/10/21 09:38:44;;;;;;;11.10;5.45;;;15.60;99.90;;;;;;5028499;28;20080;-82
2022/10/21 09:41:18;;;;;;;17.63;6.80;;;15.80;99.90;;;;;;5054124;28;20044;-83
2022/10/21 09:43:44;;;;;;;9.63;5.57;;;15.90;99.90;;;;;;5046608;28;20076;-83
2022/10/21 09:46:13;;;;;;;13.05;5.53;;;16.00;99.90;;;;;;5049846;28;20049;-82
2022/10/21 09:48:54;;;;;;;10.57;5.28;;;16.00;99.90;;;;;;5027727;28;20053;-82
2022/10/21 09:51:28;;;;;;;7.97;5.68;;;15.90;99.90;;;;;;5044745;28;20132;-84
2022/10/21 09:54:15;;;;;;;11.48;5.00;;;16.00;99.90;;;;;;5041922;28;20052;-83
2022/10/21 09:56:49;;;;;;;11.75;6.10;;;15.90;99.90;;;;;;5051280;28;20563;-83
2022/10/21 09:59:20;;;;;;;10.70;5.22;;;15.90;99.90;;;;;;5052328;28;20044;-82
2022/10/21 10:01:47;;;;;;;9.32;4.38;;;15.90;99.90;;;;;;5052561;28;20060;-83
2022/10/21 10:04:29;;;;;;;9.50;4.65;;;15.90;99.90;;;;;;5040938;28;20087;-83
2022/10/21 10:06:56;;;;;;;;;;;15.90;99.90;;;;;;5040289;28;20049;-83
2022/10/21 10:09:31;;;;;;;11.65;4.53;;;15.90;99.90;;;;;;5042670;28;19925;-82
2022/10/21 10:12:01;;;;;;;10.30;4.68;;;16.00;99.90;;;;;;5025564;28;20130;-85
2022/10/21 10:14:33;;;;;;;12.40;5.40;;;16.00;99.90;;;;;;5034836;28;20060;-83
2022/10/21 10:17:18;;;;;;;12.05;5.30;;;16.00;99.90;;;;;;5033165;28;20037;-83
2022/10/21 10:20:04;;;;;;;8.90;4.50;;;16.00;99.90;;;;;;5045947;28;20081;-83
2022/10/21 10:22:31;;;;;;;14.15;5.40;;;16.10;99.90;;;;;;5030640;28;20049;-83
2022/10/21 10:25:16;;;;;;;13.90;5.47;;;16.00;99.90;;;;;;5043361;28;20080;-83
2022/10/21 10:27:54;;;;;;;6.22;4.22;;;16.10;99.90;;;;;;5047237;28;20041;-83
2022/10/21 10:30:22;;;;;;;7.68;4.10;;;16.10;99.90;;;;;;5044952;28;20060;-82
2022/10/21 10:32:51;;;;;;;9.30;3.97;;;16.10;99.90;;;;;;5044758;28;20052;-83
2022/10/21 10:35:29;;;;;;;13.15;4.25;;;16.10;99.90;;;;;;5040295;28;22156;-82
2022/10/21 10:37:57;;;;;;;12.75;4.50;;;16.20;99.90;;;;;;5040868;28;20101;-82
2022/10/21 10:40:38;;;;;;;9.57;4.18;;;16.20;99.90;;;;;;5039469;28;20045;-82
2022/10/21 10:43:29;;;;;;;7.78;3.55;;;16.30;99.90;;;;;;5038123;28;20124;-82
2022/10/21 10:45:56;;;;;;;11.85;3.95;;;16.30;99.90;;;;;;5042478;28;20049;-82
2022/10/21 10:48:36;;;;;;;5.53;3.67;;;16.40;99.90;;;;;;5038206;28;21120;-82
2022/10/21 10:51:06;;;;;;;7.78;3.55;;;16.40;99.90;;;;;;5033761;28;20033;-82
2022/10/21 10:53:34;;;;;;;9.57;3.67;;;16.50;99.90;;;;;;5042214;28;20451;-84
2022/10/21 10:56:07;;;;;;;8.40;4.15;;;16.60;99.90;;;;;;5046883;28;20496;-83
2022/10/21 10:58:37;;;;;;;8.73;3.53;;;16.60;99.90;;;;;;5023201;28;20052;-82
2022/10/21 11:01:09;;;;;;;8.50;4.03;;;16.70;99.90;;;;;;5042215;28;20042;-83
2022/10/21 11:03:50;;;;;;;8.77;5.05;;;16.70;99.90;;;;;;5045153;28;20167;-82
2022/10/21 11:06:20;;;;;;;10.47;5.40;;;16.80;99.90;;;;;;5036246;28;20108;-82
2022/10/21 11:08:53;;;;;;;17.17;5.80;;;16.90;99.90;;;;;;5045864;28;20397;-82
2022/10/21 11:11:35;;;;;;;10.75;4.55;;;16.90;99.90;;;;;;5040390;28;20045;-81
2022/10/21 11:14:01;;;;;;;;;;;16.90;99.90;;;;;;5045664;28;20113;-82
2022/10/21 11:17:11;;;;;;;14.80;4.75;;;16.90;99.90;;;;;;5045730;28;19968;-82
2022/10/21 11:19:53;;;;;;;13.27;4.18;;;16.90;99.90;;;;;;5036077;28;20063;-81
2022/10/21 11:22:33;;;;;;;8.18;4.25;;;17.00;99.90;;;;;;5027459;28;20052;-82
2022/10/21 11:25:17;;;;;;;11.85;4.75;;;17.00;99.90;;;;;;5047901;28;20053;-81
2022/10/21 11:28:08;;;;;;;9.80;4.50;;;17.00;99.90;;;;;;5048294;28;20056;-81
2022/10/21 11:30:52;;;;;;;8.00;4.25;;;17.00;99.90;;;;;;5045708;28;20484;-81
2022/10/21 11:33:32;;;;;;;11.05;4.05;;;17.00;99.90;;;;;;5063459;28;20087;-81
2022/10/21 11:36:20;;;;;;;8.57;4.20;;;17.00;99.90;;;;;;5042710;28;20091;-82
2022/10/21 11:38:53;;;;;;;9.70;4.47;;;17.00;99.90;;;;;;5049753;28;20081;-82
2022/10/21 11:41:51;;;;;;;7.63;3.92;;;17.00;99.90;;;;;;5048521;28;20783;-82
2022/10/21 11:44:53;;;;;;;10.13;4.53;;;17.00;99.90;;;;;;5030881;28;20069;-81
2022/10/21 11:47:25;;;;;;;10.05;4.43;;;17.00;99.90;;;;;;5041142;28;20080;-81
2022/10/21 11:50:16;;;;;;;8.68;4.43;;;17.10;99.90;;;;;;5038140;28;20049;-82
2022/10/21 11:53:10;;;;;;;6.23;4.40;;;17.00;99.90;;;;;;5044674;28;20037;-83
2022/10/21 11:55:57;;;;;;;7.28;4.47;;;17.10;99.90;;;;;;5036360;28;20255;-83
2022/10/21 11:58:36;;;;;;;9.05;4.28;;;17.10;99.90;;;;;;5020768;28;20045;-83
2022/10/21 12:01:11;;;;;;;11.27;5.15;;;17.10;99.90;;;;;;5045426;28;20045;-82
2022/10/21 12:03:56;;;;;;;9.10;4.63;;;17.20;99.90;;;;;;5039040;28;20105;-82
2022/10/21 12:06:33;;;;;;;6.00;3.60;;;17.20;99.90;;;;;;5068936;28;20057;-82
2022/10/21 12:09:05;;;;;;;7.45;4.03;;;17.20;99.90;;;;;;5045591;28;20084;-83
2022/10/21 12:11:54;;;;;;;;;;;17.20;99.90;;;;;;5040970;28;20108;-81
2022/10/21 12:14:32;;;;;;;9.30;4.43;;;17.20;99.90;;;;;;5024286;28;19921;-82
2022/10/21 12:17:03;;;;;;;7.38;4.05;;;17.20;99.90;;;;;;5046376;28;20088;-82
2022/10/21 12:19:29;;;;;;;7.45;4.00;;;17.20;99.90;;;;;;5043861;28;20040;-81
2022/10/21 12:21:54;;;;;;;9.55;3.53;;;17.20;99.90;;;;;;5041685;28;20048;-82
2022/10/21 12:24:27;;;;;;;7.60;4.03;;;17.10;99.90;;;;;;5043565;28;20041;-82
2022/10/21 12:27:09;;;;;;;22.23;11.57;;;17.20;99.90;;;;;;5061858;28;20032;-81
2022/10/21 12:30:00;;;;;;;10.88;4.68;;;17.10;99.90;;;;;;5045058;28;20527;-80
2022/10/21 12:32:30;;;;;;;6.93;3.30;;;17.10;99.90;;;;;;5045681;28;20044;-82
2022/10/21 12:34:56;;;;;;;9.82;3.97;;;17.10;99.90;;;;;;5050857;28;20068;-81
2022/10/21 12:37:50;;;;;;;6.68;3.05;;;17.10;99.90;;;;;;5051331;28;20108;-81
2022/10/21 12:40:37;;;;;;;15.90;4.05;;;17.00;99.90;;;;;;5036942;28;20064;-81
2022/10/21 12:43:27;;;;;;;9.20;4.55;;;17.10;99.90;;;;;;5040638;28;20037;-81
2022/10/21 12:46:09;;;;;;;7.22;3.90;;;17.00;99.90;;;;;;5054558;28;20045;-81
2022/10/21 12:48:39;;;;;;;;;;;17.00;99.90;;;;;;5056990;28;20056;-80
2022/10/21 12:51:15;;;;;;;7.68;3.45;;;17.00;99.90;;;;;;5046176;28;19921;-80
2022/10/21 12:53:48;;;;;;;15.15;4.53;;;17.00;99.90;;;;;;5050746;28;20079;-81